sensor_id;sensor_type;location;lat;lon;timestamp;temperature;humidity
75931;DHT22;64609;47.052;15.462;2023-11-22T00:00:07;8.70;71.00
75931;DHT22;64609;47.052;15.462;2023-11-22T00:02:33;8.70;70.90
75931;DHT22;64609;47.052;15.462;2023-11-22T00:04:59;8.70;71.00
75931;DHT22;64609;47.052;15.462;2023-11-22T00:07:24;8.70;71.00
75931;DHT22;64609;47.052;15.462;2023-11-22T00:09:50;8.70;70.80
75931;DHT22;64609;47.052;15.462;2023-11-22T00:12:18;8.70;70.80
75931;DHT22;64609;47.052;15.462;2023-11-22T00:14:43;8.70;70.80
75931;DHT22;64609;47.052;15.462;2023-11-22T00:17:09;8.60;70.70
75931;DHT22;64609;47.052;15.462;2023-11-22T00:19:36;8.60;70.80
75931;DHT22;64609;47.052;15.462;2023-11-22T00:22:01;8.60;70.70
75931;DHT22;64609;47.052;15.462;2023-11-22T00:24:37;8.60;70.70
75931;DHT22;64609;47.052;15.462;2023-11-22T00:27:02;8.60;70.60
75931;DHT22;64609;47.052;15.462;2023-11-22T00:29:28;8.50;70.60
75931;DHT22;64609;47.052;15.462;2023-11-22T00:31:54;8.50;70.70
75931;DHT22;64609;47.052;15.462;2023-11-22T00:34:19;8.50;70.70
75931;DHT22;64609;47.052;15.462;2023-11-22T00:36:45;8.50;70.60
75931;DHT22;64609;47.052;15.462;2023-11-22T00:39:10;8.50;70.40
75931;DHT22;64609;47.052;15.462;2023-11-22T00:41:38;8.50;70.50
75931;DHT22;64609;47.052;15.462;2023-11-22T00:44:04;8.50;70.70
75931;DHT22;64609;47.052;15.462;2023-11-22T00:46:32;8.50;70.40
75931;DHT22;64609;47.052;15.462;2023-11-22T00:48:57;8.50;70.30
75931;DHT22;64609;47.052;15.462;2023-11-22T00:51:23;8.40;70.40
75931;DHT22;64609;47.052;15.462;2023-11-22T00:53:49;8.40;70.50
75931;DHT22;64609;47.052;15.462;2023-11-22T00:56:15;8.40;70.80
75931;DHT22;64609;47.052;15.462;2023-11-22T00:58:41;8.40;70.90
75931;DHT22;64609;47.052;15.462;2023-11-22T01:01:07;8.40;71.00
75931;DHT22;64609;47.052;15.462;2023-11-22T01:03:33;8.40;71.00
75931;DHT22;64609;47.052;15.462;2023-11-22T01:05:58;8.40;70.60
75931;DHT22;64609;47.052;15.462;2023-11-22T01:08:24;8.40;70.50
75931;DHT22;64609;47.052;15.462;2023-11-22T01:10:50;8.30;70.20
75931;DHT22;64609;47.052;15.462;2023-11-22T01:13:15;8.20;70.10
75931;DHT22;64609;47.052;15.462;2023-11-22T01:15:41;8.10;69.90
75931;DHT22;64609;47.052;15.462;2023-11-22T01:18:07;8.00;70.20
75931;DHT22;64609;47.052;15.462;2023-11-22T01:20:33;7.90;70.40
75931;DHT22;64609;47.052;15.462;2023-11-22T01:23:00;7.90;70.50
75931;DHT22;64609;47.052;15.462;2023-11-22T01:25:25;7.90;70.60
75931;DHT22;64609;47.052;15.462;2023-11-22T01:27:51;7.90;70.80
75931;DHT22;64609;47.052;15.462;2023-11-22T01:30:17;7.90;70.40
75931;DHT22;64609;47.052;15.462;2023-11-22T01:32:43;7.90;70.40
75931;DHT22;64609;47.052;15.462;2023-11-22T01:35:10;7.80;70.20
75931;DHT22;64609;47.052;15.462;2023-11-22T01:37:36;7.80;70.00
75931;DHT22;64609;47.052;15.462;2023-11-22T01:40:02;7.70;70.00
75931;DHT22;64609;47.052;15.462;2023-11-22T01:42:29;7.70;70.10
75931;DHT22;64609;47.052;15.462;2023-11-22T01:44:55;7.70;70.10
75931;DHT22;64609;47.052;15.462;2023-11-22T01:47:21;7.70;69.90
75931;DHT22;64609;47.052;15.462;2023-11-22T01:49:47;7.60;69.60
75931;DHT22;64609;47.052;15.462;2023-11-22T01:52:13;7.60;69.70
75931;DHT22;64609;47.052;15.462;2023-11-22T01:54:39;7.60;69.90
75931;DHT22;64609;47.052;15.462;2023-11-22T01:57:05;7.60;69.70
75931;DHT22;64609;47.052;15.462;2023-11-22T01:59:34;7.60;69.70
75931;DHT22;64609;47.052;15.462;2023-11-22T02:02:00;7.60;69.70
75931;DHT22;64609;47.052;15.462;2023-11-22T02:04:25;7.60;70.00
75931;DHT22;64609;47.052;15.462;2023-11-22T02:06:52;7.60;69.80
75931;DHT22;64609;47.052;15.462;2023-11-22T02:09:17;7.60;69.70
75931;DHT22;64609;47.052;15.462;2023-11-22T02:11:44;7.60;69.90
75931;DHT22;64609;47.052;15.462;2023-11-22T02:14:15;7.50;69.80
75931;DHT22;64609;47.052;15.462;2023-11-22T02:16:41;7.50;69.70
75931;DHT22;64609;47.052;15.462;2023-11-22T02:19:08;7.40;69.50
75931;DHT22;64609;47.052;15.462;2023-11-22T02:21:38;7.40;69.80
75931;DHT22;64609;47.052;15.462;2023-11-22T02:24:04;7.40;69.60
75931;DHT22;64609;47.052;15.462;2023-11-22T02:26:30;7.40;69.50
75931;DHT22;64609;47.052;15.462;2023-11-22T02:28:56;7.40;69.60
75931;DHT22;64609;47.052;15.462;2023-11-22T02:31:22;7.30;69.60
75931;DHT22;64609;47.052;15.462;2023-11-22T02:33:49;7.30;69.60
75931;DHT22;64609;47.052;15.462;2023-11-22T02:36:15;7.30;69.40
75931;DHT22;64609;47.052;15.462;2023-11-22T02:38:41;7.30;69.20
75931;DHT22;64609;47.052;15.462;2023-11-22T02:41:07;7.20;69.30
75931;DHT22;64609;47.052;15.462;2023-11-22T02:43:34;7.20;69.20
75931;DHT22;64609;47.052;15.462;2023-11-22T02:46:01;7.20;69.30
75931;DHT22;64609;47.052;15.462;2023-11-22T02:48:26;7.10;69.40
75931;DHT22;64609;47.052;15.462;2023-11-22T02:50:52;7.20;69.50
75931;DHT22;64609;47.052;15.462;2023-11-22T02:53:19;7.10;69.30
75931;DHT22;64609;47.052;15.462;2023-11-22T02:55:45;7.10;69.30
75931;DHT22;64609;47.052;15.462;2023-11-22T02:58:11;7.10;69.20
75931;DHT22;64609;47.052;15.462;2023-11-22T03:00:40;7.00;69.10
75931;DHT22;64609;47.052;15.462;2023-11-22T03:03:06;7.00;69.10
75931;DHT22;64609;47.052;15.462;2023-11-22T03:05:35;6.90;69.20
75931;DHT22;64609;47.052;15.462;2023-11-22T03:08:03;6.90;69.30
75931;DHT22;64609;47.052;15.462;2023-11-22T03:10:28;6.90;69.10
75931;DHT22;64609;47.052;15.462;2023-11-22T03:12:55;7.00;69.10
75931;DHT22;64609;47.052;15.462;2023-11-22T03:15:21;6.90;68.90
75931;DHT22;64609;47.052;15.462;2023-11-22T03:17:47;6.90;68.90
75931;DHT22;64609;47.052;15.462;2023-11-22T03:20:14;6.90;69.00
75931;DHT22;64609;47.052;15.462;2023-11-22T03:22:41;6.90;69.10
75931;DHT22;64609;47.052;15.462;2023-11-22T03:25:10;6.90;69.20
75931;DHT22;64609;47.052;15.462;2023-11-22T03:27:37;6.90;69.20
75931;DHT22;64609;47.052;15.462;2023-11-22T03:30:03;6.90;69.10
75931;DHT22;64609;47.052;15.462;2023-11-22T03:32:29;6.80;69.30
75931;DHT22;64609;47.052;15.462;2023-11-22T03:34:55;6.90;69.40
75931;DHT22;64609;47.052;15.462;2023-11-22T03:37:23;6.90;69.40
75931;DHT22;64609;47.052;15.462;2023-11-22T03:39:49;6.90;69.00
75931;DHT22;64609;47.052;15.462;2023-11-22T03:42:16;6.90;69.10
75931;DHT22;64609;47.052;15.462;2023-11-22T03:44:42;6.90;69.00
75931;DHT22;64609;47.052;15.462;2023-11-22T03:47:07;6.80;70.00
75931;DHT22;64609;47.052;15.462;2023-11-22T03:49:33;6.80;69.30
75931;DHT22;64609;47.052;15.462;2023-11-22T03:51:58;6.80;69.30
75931;DHT22;64609;47.052;15.462;2023-11-22T03:54:24;6.80;69.50
75931;DHT22;64609;47.052;15.462;2023-11-22T03:56:50;6.80;69.70
75931;DHT22;64609;47.052;15.462;2023-11-22T03:59:16;6.80;69.60
75931;DHT22;64609;47.052;15.462;2023-11-22T04:01:41;6.90;69.60
75931;DHT22;64609;47.052;15.462;2023-11-22T04:04:07;6.90;69.10
75931;DHT22;64609;47.052;15.462;2023-11-22T04:06:35;6.80;69.10
75931;DHT22;64609;47.052;15.462;2023-11-22T04:09:01;6.80;69.20
75931;DHT22;64609;47.052;15.462;2023-11-22T04:11:27;6.80;69.10
75931;DHT22;64609;47.052;15.462;2023-11-22T04:13:54;6.70;69.00
75931;DHT22;64609;47.052;15.462;2023-11-22T04:16:20;6.70;68.90
75931;DHT22;64609;47.052;15.462;2023-11-22T04:18:46;6.60;69.10
75931;DHT22;64609;47.052;15.462;2023-11-22T04:21:12;6.60;69.20
75931;DHT22;64609;47.052;15.462;2023-11-22T04:23:37;6.50;69.20
75931;DHT22;64609;47.052;15.462;2023-11-22T04:26:03;6.60;69.20
75931;DHT22;64609;47.052;15.462;2023-11-22T04:28:30;6.50;69.30
75931;DHT22;64609;47.052;15.462;2023-11-22T04:30:56;6.50;69.10
75931;DHT22;64609;47.052;15.462;2023-11-22T04:33:22;6.50;69.40
75931;DHT22;64609;47.052;15.462;2023-11-22T04:35:49;6.50;69.30
75931;DHT22;64609;47.052;15.462;2023-11-22T04:38:15;6.50;69.40
75931;DHT22;64609;47.052;15.462;2023-11-22T04:40:41;6.50;69.10
75931;DHT22;64609;47.052;15.462;2023-11-22T04:43:08;6.50;69.10
75931;DHT22;64609;47.052;15.462;2023-11-22T04:45:33;6.40;69.00
75931;DHT22;64609;47.052;15.462;2023-11-22T04:48:00;6.40;69.10
75931;DHT22;64609;47.052;15.462;2023-11-22T04:50:25;6.30;69.20
75931;DHT22;64609;47.052;15.462;2023-11-22T04:52:51;6.30;69.20
75931;DHT22;64609;47.052;15.462;2023-11-22T04:55:17;6.30;69.30
75931;DHT22;64609;47.052;15.462;2023-11-22T04:57:47;6.30;69.50
75931;DHT22;64609;47.052;15.462;2023-11-22T05:00:13;6.30;69.40
75931;DHT22;64609;47.052;15.462;2023-11-22T05:02:39;6.30;69.30
75931;DHT22;64609;47.052;15.462;2023-11-22T05:05:08;6.30;69.30
75931;DHT22;64609;47.052;15.462;2023-11-22T05:07:36;6.30;69.40
75931;DHT22;64609;47.052;15.462;2023-11-22T05:10:04;6.30;69.40
75931;DHT22;64609;47.052;15.462;2023-11-22T05:12:31;6.30;69.20
75931;DHT22;64609;47.052;15.462;2023-11-22T05:14:56;6.30;69.00
75931;DHT22;64609;47.052;15.462;2023-11-22T05:17:22;6.20;69.10
75931;DHT22;64609;47.052;15.462;2023-11-22T05:19:49;6.20;69.10
75931;DHT22;64609;47.052;15.462;2023-11-22T05:22:15;6.20;69.00
75931;DHT22;64609;47.052;15.462;2023-11-22T05:24:40;6.20;69.10
75931;DHT22;64609;47.052;15.462;2023-11-22T05:27:09;6.20;69.20
75931;DHT22;64609;47.052;15.462;2023-11-22T05:29:35;6.20;69.20
75931;DHT22;64609;47.052;15.462;2023-11-22T05:32:02;6.30;69.40
75931;DHT22;64609;47.052;15.462;2023-11-22T05:34:31;6.30;69.30
75931;DHT22;64609;47.052;15.462;2023-11-22T05:36:57;6.30;69.20
75931;DHT22;64609;47.052;15.462;2023-11-22T05:39:23;6.30;69.30
75931;DHT22;64609;47.052;15.462;2023-11-22T05:41:50;6.40;69.20
75931;DHT22;64609;47.052;15.462;2023-11-22T05:44:16;6.30;69.30
75931;DHT22;64609;47.052;15.462;2023-11-22T05:46:41;6.30;69.40
75931;DHT22;64609;47.052;15.462;2023-11-22T05:49:07;6.30;70.50
75931;DHT22;64609;47.052;15.462;2023-11-22T05:51:33;6.30;69.40
75931;DHT22;64609;47.052;15.462;2023-11-22T05:54:02;6.30;69.30
75931;DHT22;64609;47.052;15.462;2023-11-22T05:56:28;6.20;69.20
75931;DHT22;64609;47.052;15.462;2023-11-22T05:58:54;6.30;69.30
75931;DHT22;64609;47.052;15.462;2023-11-22T06:01:19;6.30;69.30
75931;DHT22;64609;47.052;15.462;2023-11-22T06:03:45;6.30;69.20
75931;DHT22;64609;47.052;15.462;2023-11-22T06:06:12;6.20;69.20
75931;DHT22;64609;47.052;15.462;2023-11-22T06:08:39;6.20;69.10
75931;DHT22;64609;47.052;15.462;2023-11-22T06:11:04;6.10;69.30
75931;DHT22;64609;47.052;15.462;2023-11-22T06:13:30;6.10;69.60
75931;DHT22;64609;47.052;15.462;2023-11-22T06:15:57;6.10;69.70
75931;DHT22;64609;47.052;15.462;2023-11-22T06:18:22;6.10;69.50
75931;DHT22;64609;47.052;15.462;2023-11-22T06:20:54;6.20;69.70
75931;DHT22;64609;47.052;15.462;2023-11-22T06:23:20;6.20;69.90
75931;DHT22;64609;47.052;15.462;2023-11-22T06:25:45;6.30;70.00
75931;DHT22;64609;47.052;15.462;2023-11-22T06:28:11;6.30;69.90
75931;DHT22;64609;47.052;15.462;2023-11-22T06:30:36;6.40;70.00
75931;DHT22;64609;47.052;15.462;2023-11-22T06:33:02;6.40;69.70
75931;DHT22;64609;47.052;15.462;2023-11-22T06:35:28;6.40;69.50
75931;DHT22;64609;47.052;15.462;2023-11-22T06:37:54;6.40;69.50
75931;DHT22;64609;47.052;15.462;2023-11-22T06:40:19;6.30;69.30
75931;DHT22;64609;47.052;15.462;2023-11-22T06:42:48;6.30;69.40
75931;DHT22;64609;47.052;15.462;2023-11-22T06:45:14;6.20;69.40
75931;DHT22;64609;47.052;15.462;2023-11-22T06:47:41;6.20;69.70
75931;DHT22;64609;47.052;15.462;2023-11-22T06:50:07;6.20;69.80
75931;DHT22;64609;47.052;15.462;2023-11-22T06:52:39;6.20;69.80
75931;DHT22;64609;47.052;15.462;2023-11-22T06:55:06;6.20;69.80
75931;DHT22;64609;47.052;15.462;2023-11-22T06:57:38;6.30;69.90
75931;DHT22;64609;47.052;15.462;2023-11-22T07:00:05;6.30;69.80
75931;DHT22;64609;47.052;15.462;2023-11-22T07:02:34;6.40;69.90
75931;DHT22;64609;47.052;15.462;2023-11-22T07:05:03;6.40;69.70
75931;DHT22;64609;47.052;15.462;2023-11-22T07:07:29;6.60;70.20
75931;DHT22;64609;47.052;15.462;2023-11-22T07:09:55;6.70;69.90
75931;DHT22;64609;47.052;15.462;2023-11-22T07:12:25;6.80;69.70
75931;DHT22;64609;47.052;15.462;2023-11-22T07:14:50;6.80;69.80
75931;DHT22;64609;47.052;15.462;2023-11-22T07:17:16;6.90;69.70
75931;DHT22;64609;47.052;15.462;2023-11-22T07:19:44;6.90;69.60
75931;DHT22;64609;47.052;15.462;2023-11-22T07:22:15;7.00;69.60
75931;DHT22;64609;47.052;15.462;2023-11-22T07:24:48;7.10;69.50
75931;DHT22;64609;47.052;15.462;2023-11-22T07:27:17;7.20;69.30
75931;DHT22;64609;47.052;15.462;2023-11-22T07:29:43;7.30;69.20
75931;DHT22;64609;47.052;15.462;2023-11-22T07:32:10;7.40;69.20
75931;DHT22;64609;47.052;15.462;2023-11-22T07:34:37;7.60;69.20
75931;DHT22;64609;47.052;15.462;2023-11-22T07:37:03;7.80;69.40
75931;DHT22;64609;47.052;15.462;2023-11-22T07:39:29;8.10;69.00
75931;DHT22;64609;47.052;15.462;2023-11-22T07:41:55;8.40;68.70
75931;DHT22;64609;47.052;15.462;2023-11-22T07:44:21;9.00;68.80
75931;DHT22;64609;47.052;15.462;2023-11-22T07:46:47;10.60;67.80
75931;DHT22;64609;47.052;15.462;2023-11-22T07:49:13;12.20;61.70
75931;DHT22;64609;47.052;15.462;2023-11-22T07:51:42;12.40;59.20
75931;DHT22;64609;47.052;15.462;2023-11-22T07:54:09;11.90;59.40
75931;DHT22;64609;47.052;15.462;2023-11-22T07:56:34;11.30;60.60
75931;DHT22;64609;47.052;15.462;2023-11-22T07:59:00;10.70;62.20
75931;DHT22;64609;47.052;15.462;2023-11-22T08:01:26;10.20;63.20
75931;DHT22;64609;47.052;15.462;2023-11-22T08:03:55;10.00;64.20
75931;DHT22;64609;47.052;15.462;2023-11-22T08:06:21;10.90;65.50
75931;DHT22;64609;47.052;15.462;2023-11-22T08:08:47;13.00;61.90
75931;DHT22;64609;47.052;15.462;2023-11-22T08:11:13;15.60;56.70
75931;DHT22;64609;47.052;15.462;2023-11-22T08:13:41;17.80;51.20
75931;DHT22;64609;47.052;15.462;2023-11-22T08:16:08;19.60;47.50
75931;DHT22;64609;47.052;15.462;2023-11-22T08:18:34;21.00;44.10
75931;DHT22;64609;47.052;15.462;2023-11-22T08:21:00;22.20;41.50
75931;DHT22;64609;47.052;15.462;2023-11-22T08:23:26;23.30;39.20
75931;DHT22;64609;47.052;15.462;2023-11-22T08:25:56;24.00;37.40
75931;DHT22;64609;47.052;15.462;2023-11-22T08:28:22;23.90;36.10
75931;DHT22;64609;47.052;15.462;2023-11-22T08:30:48;23.50;37.00
75931;DHT22;64609;47.052;15.462;2023-11-22T08:33:14;23.10;37.90
75931;DHT22;64609;47.052;15.462;2023-11-22T08:35:39;23.40;37.60
75931;DHT22;64609;47.052;15.462;2023-11-22T08:38:05;24.10;36.10
75931;DHT22;64609;47.052;15.462;2023-11-22T08:40:34;24.50;34.70
75931;DHT22;64609;47.052;15.462;2023-11-22T08:43:02;24.60;34.80
75931;DHT22;64609;47.052;15.462;2023-11-22T08:45:30;24.70;34.30
75931;DHT22;64609;47.052;15.462;2023-11-22T08:47:57;25.40;34.20
75931;DHT22;64609;47.052;15.462;2023-11-22T08:50:23;25.90;32.80
75931;DHT22;64609;47.052;15.462;2023-11-22T08:52:49;26.10;32.40
75931;DHT22;64609;47.052;15.462;2023-11-22T08:55:18;26.20;32.10
75931;DHT22;64609;47.052;15.462;2023-11-22T08:57:47;26.60;31.70
75931;DHT22;64609;47.052;15.462;2023-11-22T09:00:13;27.00;31.80
75931;DHT22;64609;47.052;15.462;2023-11-22T09:02:40;27.20;30.10
75931;DHT22;64609;47.052;15.462;2023-11-22T09:05:06;27.60;29.70
75931;DHT22;64609;47.052;15.462;2023-11-22T09:07:34;27.80;29.30
75931;DHT22;64609;47.052;15.462;2023-11-22T09:10:02;27.30;29.60
75931;DHT22;64609;47.052;15.462;2023-11-22T09:12:38;26.70;30.30
75931;DHT22;64609;47.052;15.462;2023-11-22T09:15:11;26.50;31.00
75931;DHT22;64609;47.052;15.462;2023-11-22T09:17:39;26.80;31.50
75931;DHT22;64609;47.052;15.462;2023-11-22T09:20:14;27.20;30.10
75931;DHT22;64609;47.052;15.462;2023-11-22T09:22:51;27.70;29.30
75931;DHT22;64609;47.052;15.462;2023-11-22T09:25:18;28.40;28.50
75931;DHT22;64609;47.052;15.462;2023-11-22T09:27:47;28.90;28.40
75931;DHT22;64609;47.052;15.462;2023-11-22T09:30:15;29.40;27.80
75931;DHT22;64609;47.052;15.462;2023-11-22T09:32:46;29.40;27.30
75931;DHT22;64609;47.052;15.462;2023-11-22T09:35:14;29.30;27.20
75931;DHT22;64609;47.052;15.462;2023-11-22T09:37:40;29.20;27.30
75931;DHT22;64609;47.052;15.462;2023-11-22T09:40:09;29.00;27.20
75931;DHT22;64609;47.052;15.462;2023-11-22T09:42:35;28.50;27.70
75931;DHT22;64609;47.052;15.462;2023-11-22T09:45:02;27.60;28.30
75931;DHT22;64609;47.052;15.462;2023-11-22T09:47:32;26.50;29.50
75931;DHT22;64609;47.052;15.462;2023-11-22T09:50:01;25.40;31.20
75931;DHT22;64609;47.052;15.462;2023-11-22T09:52:33;24.40;32.80
75931;DHT22;64609;47.052;15.462;2023-11-22T09:55:02;23.60;34.50
75931;DHT22;64609;47.052;15.462;2023-11-22T09:57:30;23.10;35.50
75931;DHT22;64609;47.052;15.462;2023-11-22T09:59:57;22.60;36.40
75931;DHT22;64609;47.052;15.462;2023-11-22T10:02:23;22.30;37.00
75931;DHT22;64609;47.052;15.462;2023-11-22T10:04:53;22.00;37.40
75931;DHT22;64609;47.052;15.462;2023-11-22T10:07:19;21.70;37.90
75931;DHT22;64609;47.052;15.462;2023-11-22T10:09:45;21.50;38.40
75931;DHT22;64609;47.052;15.462;2023-11-22T10:12:12;21.40;38.90
75931;DHT22;64609;47.052;15.462;2023-11-22T10:14:38;21.20;39.10
75931;DHT22;64609;47.052;15.462;2023-11-22T10:17:04;21.10;39.20
75931;DHT22;64609;47.052;15.462;2023-11-22T10:19:31;20.90;39.90
75931;DHT22;64609;47.052;15.462;2023-11-22T10:22:04;20.70;40.10
75931;DHT22;64609;47.052;15.462;2023-11-22T10:24:31;20.60;40.30
75931;DHT22;64609;47.052;15.462;2023-11-22T10:26:59;20.40;40.70
75931;DHT22;64609;47.052;15.462;2023-11-22T10:29:25;20.30;41.20
75931;DHT22;64609;47.052;15.462;2023-11-22T10:31:51;20.20;41.30
75931;DHT22;64609;47.052;15.462;2023-11-22T10:34:21;20.00;41.30
75931;DHT22;64609;47.052;15.462;2023-11-22T10:36:47;20.00;42.00
75931;DHT22;64609;47.052;15.462;2023-11-22T10:39:13;19.90;42.30
75931;DHT22;64609;47.052;15.462;2023-11-22T10:41:42;19.90;42.40
75931;DHT22;64609;47.052;15.462;2023-11-22T10:44:09;19.80;42.70
75931;DHT22;64609;47.052;15.462;2023-11-22T10:46:35;19.90;42.70
75931;DHT22;64609;47.052;15.462;2023-11-22T10:49:03;19.80;42.70
75931;DHT22;64609;47.052;15.462;2023-11-22T10:51:31;19.60;43.00
75931;DHT22;64609;47.052;15.462;2023-11-22T10:53:58;19.30;43.30
75931;DHT22;64609;47.052;15.462;2023-11-22T10:56:26;19.10;44.10
75931;DHT22;64609;47.052;15.462;2023-11-22T10:58:57;18.80;44.40
75931;DHT22;64609;47.052;15.462;2023-11-22T11:01:26;18.60;44.80
75931;DHT22;64609;47.052;15.462;2023-11-22T11:06:33;18.20;45.80
75931;DHT22;64609;47.052;15.462;2023-11-22T11:09:04;18.20;46.10
75931;DHT22;64609;47.052;15.462;2023-11-22T11:11:40;18.10;46.60
75931;DHT22;64609;47.052;15.462;2023-11-22T11:14:08;18.00;46.40
75931;DHT22;64609;47.052;15.462;2023-11-22T11:16:38;18.00;46.60
75931;DHT22;64609;47.052;15.462;2023-11-22T11:19:07;18.00;47.40
75931;DHT22;64609;47.052;15.462;2023-11-22T11:21:35;18.00;47.40
75931;DHT22;64609;47.052;15.462;2023-11-22T11:24:01;17.90;47.90
75931;DHT22;64609;47.052;15.462;2023-11-22T11:26:32;17.80;47.20
75931;DHT22;64609;47.052;15.462;2023-11-22T11:29:00;17.90;47.00
75931;DHT22;64609;47.052;15.462;2023-11-22T11:31:31;17.80;47.10
75931;DHT22;64609;47.052;15.462;2023-11-22T11:33:58;17.70;47.10
75931;DHT22;64609;47.052;15.462;2023-11-22T11:36:27;17.60;47.80
75931;DHT22;64609;47.052;15.462;2023-11-22T11:38:54;17.60;48.10
75931;DHT22;64609;47.052;15.462;2023-11-22T11:41:25;17.60;48.10
75931;DHT22;64609;47.052;15.462;2023-11-22T11:43:52;17.60;47.90
75931;DHT22;64609;47.052;15.462;2023-11-22T11:46:18;17.60;48.20
75931;DHT22;64609;47.052;15.462;2023-11-22T11:48:51;17.60;48.40
75931;DHT22;64609;47.052;15.462;2023-11-22T11:51:22;17.50;48.10
75931;DHT22;64609;47.052;15.462;2023-11-22T11:53:48;17.40;48.70
75931;DHT22;64609;47.052;15.462;2023-11-22T11:56:15;17.30;48.80
75931;DHT22;64609;47.052;15.462;2023-11-22T11:58:45;17.30;48.70
75931;DHT22;64609;47.052;15.462;2023-11-22T12:01:18;17.30;49.00
75931;DHT22;64609;47.052;15.462;2023-11-22T12:03:47;17.10;48.80
75931;DHT22;64609;47.052;15.462;2023-11-22T12:06:17;17.00;49.10
75931;DHT22;64609;47.052;15.462;2023-11-22T12:08:43;16.90;49.60
75931;DHT22;64609;47.052;15.462;2023-11-22T12:11:09;16.90;50.00
75931;DHT22;64609;47.052;15.462;2023-11-22T12:13:37;16.80;50.30
75931;DHT22;64609;47.052;15.462;2023-11-22T12:16:06;16.70;50.40
75931;DHT22;64609;47.052;15.462;2023-11-22T12:18:40;16.60;50.60
75931;DHT22;64609;47.052;15.462;2023-11-22T12:21:07;16.40;50.90
75931;DHT22;64609;47.052;15.462;2023-11-22T12:23:32;16.30;51.10
75931;DHT22;64609;47.052;15.462;2023-11-22T12:25:59;16.20;51.30
75931;DHT22;64609;47.052;15.462;2023-11-22T12:28:29;16.00;51.40
75931;DHT22;64609;47.052;15.462;2023-11-22T12:30:55;15.80;51.60
75931;DHT22;64609;47.052;15.462;2023-11-22T12:33:31;15.80;52.00
75931;DHT22;64609;47.052;15.462;2023-11-22T12:35:57;15.70;52.60
75931;DHT22;64609;47.052;15.462;2023-11-22T12:38:23;15.70;52.50
75931;DHT22;64609;47.052;15.462;2023-11-22T12:40:51;15.50;52.20
75931;DHT22;64609;47.052;15.462;2023-11-22T12:43:17;15.40;52.50
75931;DHT22;64609;47.052;15.462;2023-11-22T12:45:42;15.40;52.90
75931;DHT22;64609;47.052;15.462;2023-11-22T12:48:24;15.40;52.90
75931;DHT22;64609;47.052;15.462;2023-11-22T12:50:51;15.40;53.10
75931;DHT22;64609;47.052;15.462;2023-11-22T12:53:18;15.40;53.20
75931;DHT22;64609;47.052;15.462;2023-11-22T12:55:48;15.30;53.70
75931;DHT22;64609;47.052;15.462;2023-11-22T12:58:22;15.30;53.80
75931;DHT22;64609;47.052;15.462;2023-11-22T13:00:49;15.30;54.00
75931;DHT22;64609;47.052;15.462;2023-11-22T13:03:14;15.30;54.00
75931;DHT22;64609;47.052;15.462;2023-11-22T13:05:44;15.30;54.20
75931;DHT22;64609;47.052;15.462;2023-11-22T13:08:14;15.20;54.40
75931;DHT22;64609;47.052;15.462;2023-11-22T13:10:42;15.20;54.00
75931;DHT22;64609;47.052;15.462;2023-11-22T13:13:08;15.20;54.20
75931;DHT22;64609;47.052;15.462;2023-11-22T13:15:34;15.20;54.00
75931;DHT22;64609;47.052;15.462;2023-11-22T13:18:00;15.20;54.30
75931;DHT22;64609;47.052;15.462;2023-11-22T13:20:26;15.20;54.30
75931;DHT22;64609;47.052;15.462;2023-11-22T13:22:55;15.20;54.40
75931;DHT22;64609;47.052;15.462;2023-11-22T13:25:22;15.10;54.40
75931;DHT22;64609;47.052;15.462;2023-11-22T13:27:49;15.10;54.40
75931;DHT22;64609;47.052;15.462;2023-11-22T13:30:16;15.10;54.40
75931;DHT22;64609;47.052;15.462;2023-11-22T13:32:45;15.10;54.70
75931;DHT22;64609;47.052;15.462;2023-11-22T13:35:11;15.10;54.70
75931;DHT22;64609;47.052;15.462;2023-11-22T13:37:47;15.10;54.40
75931;DHT22;64609;47.052;15.462;2023-11-22T13:40:15;15.10;54.70
75931;DHT22;64609;47.052;15.462;2023-11-22T13:42:46;15.10;54.70
75931;DHT22;64609;47.052;15.462;2023-11-22T13:45:14;15.10;54.60
75931;DHT22;64609;47.052;15.462;2023-11-22T13:47:43;15.10;54.80
75931;DHT22;64609;47.052;15.462;2023-11-22T13:50:10;15.00;53.80
75931;DHT22;64609;47.052;15.462;2023-11-22T13:52:36;15.00;53.10
75931;DHT22;64609;47.052;15.462;2023-11-22T13:55:03;14.90;53.40
75931;DHT22;64609;47.052;15.462;2023-11-22T13:57:33;14.90;54.10
75931;DHT22;64609;47.052;15.462;2023-11-22T13:59:59;14.90;54.10
75931;DHT22;64609;47.052;15.462;2023-11-22T14:02:24;14.90;52.30
75931;DHT22;64609;47.052;15.462;2023-11-22T14:04:50;14.70;52.20
75931;DHT22;64609;47.052;15.462;2023-11-22T14:07:17;14.70;51.60
75931;DHT22;64609;47.052;15.462;2023-11-22T14:09:43;14.70;51.00
75931;DHT22;64609;47.052;15.462;2023-11-22T14:12:12;14.50;51.40
75931;DHT22;64609;47.052;15.462;2023-11-22T14:14:37;14.60;51.70
75931;DHT22;64609;47.052;15.462;2023-11-22T14:17:03;14.60;51.40
75931;DHT22;64609;47.052;15.462;2023-11-22T14:19:29;14.50;51.20
75931;DHT22;64609;47.052;15.462;2023-11-22T14:21:55;14.50;51.30
75931;DHT22;64609;47.052;15.462;2023-11-22T14:24:21;14.50;51.60
75931;DHT22;64609;47.052;15.462;2023-11-22T14:26:46;14.40;51.40
75931;DHT22;64609;47.052;15.462;2023-11-22T14:29:14;14.40;51.80
75931;DHT22;64609;47.052;15.462;2023-11-22T14:31:41;14.30;51.80
75931;DHT22;64609;47.052;15.462;2023-11-22T14:34:07;14.30;51.90
75931;DHT22;64609;47.052;15.462;2023-11-22T14:36:32;14.30;52.00
75931;DHT22;64609;47.052;15.462;2023-11-22T14:38:58;14.20;51.50
75931;DHT22;64609;47.052;15.462;2023-11-22T14:41:24;14.00;51.70
75931;DHT22;64609;47.052;15.462;2023-11-22T14:43:49;14.00;52.00
75931;DHT22;64609;47.052;15.462;2023-11-22T14:46:15;13.90;52.00
75931;DHT22;64609;47.052;15.462;2023-11-22T14:48:41;13.80;51.90
75931;DHT22;64609;47.052;15.462;2023-11-22T14:51:06;13.60;52.10
75931;DHT22;64609;47.052;15.462;2023-11-22T14:53:34;13.60;52.30
75931;DHT22;64609;47.052;15.462;2023-11-22T14:56:00;13.50;52.80
75931;DHT22;64609;47.052;15.462;2023-11-22T14:58:26;13.40;52.80
75931;DHT22;64609;47.052;15.462;2023-11-22T15:00:52;13.40;52.70
75931;DHT22;64609;47.052;15.462;2023-11-22T15:03:18;13.30;53.10
75931;DHT22;64609;47.052;15.462;2023-11-22T15:05:44;13.20;52.90
75931;DHT22;64609;47.052;15.462;2023-11-22T15:08:09;13.10;52.90
75931;DHT22;64609;47.052;15.462;2023-11-22T15:10:35;13.10;53.50
75931;DHT22;64609;47.052;15.462;2023-11-22T15:13:01;13.00;54.00
75931;DHT22;64609;47.052;15.462;2023-11-22T15:15:27;13.00;54.20
75931;DHT22;64609;47.052;15.462;2023-11-22T15:17:53;12.90;54.30
75931;DHT22;64609;47.052;15.462;2023-11-22T15:20:19;12.90;54.40
75931;DHT22;64609;47.052;15.462;2023-11-22T15:22:44;12.80;54.80